createdAt,value
2018-04-07T00:00:53.585Z,12.58
2018-04-07T00:01:53.588Z,12.55
2018-04-07T00:02:53.324Z,12.63
2018-04-07T00:03:53.178Z,12.62
2018-04-07T00:04:53.242Z,12.61
2018-04-07T00:05:53.121Z,12.56
2018-04-07T00:06:53.026Z,12.56
2018-04-07T00:07:52.850Z,12.61
2018-04-07T00:08:52.886Z,12.63
2018-04-07T00:09:52.702Z,12.56
2018-04-07T00:10:52.637Z,12.58
2018-04-07T00:11:52.549Z,12.51
2018-04-07T00:12:52.470Z,12.62
2018-04-07T00:13:52.380Z,12.62
2018-04-07T00:14:52.315Z,12.59
2018-04-07T00:15:52.217Z,12.62
2018-04-07T00:16:52.161Z,12.66
2018-04-07T00:17:52.076Z,12.63
2018-04-07T00:18:51.985Z,12.62
2018-04-07T00:19:51.890Z,12.59
2018-04-07T00:20:51.833Z,12.52
2018-04-07T00:21:51.748Z,12.48
2018-04-07T00:22:51.691Z,12.51
2018-04-07T00:23:51.582Z,12.49
2018-04-07T00:24:51.504Z,12.51
2018-04-07T00:25:51.416Z,12.51
2018-04-07T00:26:51.350Z,12.55
2018-04-07T00:27:51.271Z,12.46
2018-04-07T00:28:51.197Z,12.38
2018-04-07T00:29:51.097Z,12.43
2018-04-07T00:30:51.028Z,12.38
2018-04-07T00:31:50.944Z,12.36
2018-04-07T00:32:50.890Z,12.38
2018-04-07T00:33:50.793Z,12.37
2018-04-07T00:34:50.703Z,12.30
2018-04-07T00:35:50.618Z,12.30
2018-04-07T00:36:50.542Z,12.31
2018-04-07T00:37:50.476Z,12.29
2018-04-07T00:38:50.460Z,12.30
2018-04-07T00:39:50.295Z,12.38
2018-04-07T00:40:50.240Z,12.34
2018-04-07T00:41:50.150Z,12.25
2018-04-07T00:42:50.062Z,12.26
2018-04-07T00:43:49.993Z,12.30
2018-04-07T00:44:49.912Z,12.30
2018-04-07T00:45:49.831Z,12.30
2018-04-07T00:46:49.759Z,12.25
2018-04-07T00:47:49.660Z,12.30
2018-04-07T00:48:49.600Z,12.30
2018-04-07T00:49:49.502Z,12.25
2018-04-07T00:50:49.427Z,12.30
2018-04-07T00:51:49.344Z,12.29
2018-04-07T00:52:49.264Z,12.30
2018-04-07T00:53:49.190Z,12.25
2018-04-07T00:54:49.107Z,12.29
2018-04-07T00:55:49.016Z,12.26
2018-04-07T00:56:48.956Z,12.31
2018-04-07T00:57:48.856Z,12.25
2018-04-07T00:58:48.814Z,12.30
2018-04-07T00:59:48.721Z,12.23
2018-04-07T01:00:48.628Z,12.23
2018-04-07T01:01:48.625Z,12.25
2018-04-07T01:02:48.466Z,12.29
2018-04-07T01:03:48.376Z,12.23
2018-04-07T01:04:48.410Z,12.18
2018-04-07T01:05:48.221Z,12.25
2018-04-07T01:06:48.149Z,12.21
2018-04-07T01:07:48.067Z,12.26
2018-04-07T01:08:48.582Z,12.23
2018-04-07T01:09:47.936Z,12.23
2018-04-07T01:10:47.830Z,12.16
2018-04-07T01:11:47.738Z,12.12
2018-04-07T01:12:47.668Z,12.22
2018-04-07T01:13:47.577Z,12.22
2018-04-07T01:14:47.593Z,12.16
2018-04-07T01:15:47.414Z,12.22
2018-04-07T01:16:47.356Z,12.07
2018-04-07T01:17:47.367Z,12.18
2018-04-07T01:18:47.196Z,12.15
2018-04-07T01:19:47.127Z,12.13
2018-04-07T01:20:47.029Z,12.18
2018-04-07T01:21:46.942Z,12.13
2018-04-07T01:22:46.877Z,12.15
2018-04-07T01:23:46.786Z,12.11
2018-04-07T01:24:46.707Z,12.13
2018-04-07T01:25:46.632Z,12.15
2018-04-07T01:26:46.544Z,12.15
2018-04-07T01:27:46.458Z,12.16
2018-04-07T01:28:46.392Z,12.04
2018-04-07T01:29:46.301Z,12.07
2018-04-07T01:30:46.254Z,12.04
2018-04-07T01:31:46.139Z,12.04
2018-04-07T01:32:46.074Z,12.08
2018-04-07T01:33:45.975Z,12.04
2018-04-07T01:34:45.917Z,12.03
2018-04-07T01:35:45.853Z,12.04
2018-04-07T01:36:45.750Z,12.04
2018-04-07T01:37:45.661Z,11.97
2018-04-07T01:38:45.595Z,11.96
2018-04-07T01:39:45.518Z,11.94
2018-04-07T01:40:45.457Z,11.97
2018-04-07T01:41:45.347Z,12.03
2018-04-07T01:42:45.276Z,11.96
2018-04-07T01:43:45.186Z,11.96
2018-04-07T01:44:45.113Z,11.94
2018-04-07T01:45:45.024Z,11.94
2018-04-07T01:46:44.977Z,11.82
2018-04-07T01:47:44.849Z,11.93
2018-04-07T01:48:44.785Z,11.87
2018-04-07T01:49:44.696Z,11.85
2018-04-07T01:50:44.652Z,11.79
2018-04-07T01:51:44.571Z,11.79
2018-04-07T01:52:44.467Z,11.98
2018-04-07T01:53:44.378Z,11.93
2018-04-07T01:54:44.317Z,11.94
2018-04-07T01:55:44.222Z,11.87
2018-04-07T01:56:44.152Z,11.87
2018-04-07T01:57:44.090Z,11.87
2018-04-07T01:58:43.994Z,11.90
2018-04-07T01:59:43.890Z,11.88
2018-04-07T02:00:43.835Z,11.88
2018-04-07T02:01:43.742Z,11.90
2018-04-07T02:02:43.702Z,11.85
2018-04-07T02:03:43.577Z,11.82
2018-04-07T02:04:43.504Z,11.78
2018-04-07T02:05:43.418Z,11.75
2018-04-07T02:06:43.344Z,11.82
2018-04-07T02:07:43.273Z,11.77
2018-04-07T02:08:43.184Z,11.81
2018-04-07T02:09:43.093Z,11.84
2018-04-07T02:10:43.017Z,11.72
2018-04-07T02:11:42.931Z,11.70
2018-04-07T02:12:43.258Z,11.79
2018-04-07T02:13:42.854Z,11.74
2018-04-07T02:14:42.702Z,11.78
2018-04-07T02:15:42.612Z,11.78
2018-04-07T02:16:42.560Z,11.78
2018-04-07T02:17:42.475Z,11.74
2018-04-07T02:18:42.377Z,11.77
2018-04-07T02:19:42.290Z,11.75
2018-04-07T02:20:42.227Z,11.74
2018-04-07T02:21:42.142Z,11.77
2018-04-07T02:22:42.088Z,11.79
2018-04-07T02:23:41.987Z,11.70
2018-04-07T02:24:41.902Z,11.64
2018-04-07T02:25:41.808Z,11.67
2018-04-07T02:26:41.747Z,11.74
2018-04-07T02:27:41.646Z,11.63
2018-04-07T02:28:41.598Z,11.64
2018-04-07T02:29:41.497Z,11.62
2018-04-07T02:30:41.418Z,11.63
2018-04-07T02:31:41.336Z,11.74
2018-04-07T02:32:41.261Z,11.64
2018-04-07T02:33:41.211Z,11.66
2018-04-07T02:34:41.100Z,11.66
2018-04-07T02:35:41.008Z,11.64
2018-04-07T02:36:41.021Z,11.59
2018-04-07T02:37:40.847Z,11.67
2018-04-07T02:38:40.797Z,11.62
2018-04-07T02:39:40.711Z,11.63
2018-04-07T02:40:40.620Z,11.54
2018-04-07T02:41:40.530Z,11.69
2018-04-07T02:42:40.456Z,11.64
2018-04-07T02:43:40.390Z,11.57
2018-04-07T02:44:40.298Z,11.60
2018-04-07T02:45:40.216Z,11.64
2018-04-07T02:46:40.142Z,11.63
2018-04-07T02:47:40.046Z,11.60
2018-04-07T02:48:39.999Z,11.54
2018-04-07T02:49:39.944Z,11.59
2018-04-07T02:50:39.824Z,11.51
2018-04-07T02:51:39.727Z,11.53
2018-04-07T02:52:39.662Z,11.54
2018-04-07T02:53:39.589Z,11.49
2018-04-07T02:54:39.497Z,11.49
2018-04-07T02:55:39.422Z,11.42
2018-04-07T02:56:39.333Z,11.41
2018-04-07T02:57:39.249Z,11.51
2018-04-07T02:58:39.180Z,11.53
2018-04-07T02:59:39.090Z,11.54
2018-04-07T03:00:39.066Z,11.46
2018-04-07T03:01:38.922Z,11.49
2018-04-07T03:02:38.859Z,11.33
2018-04-07T03:03:38.795Z,11.42
2018-04-07T03:04:38.710Z,11.48
2018-04-07T03:05:38.605Z,11.39
2018-04-07T03:06:38.540Z,11.31
2018-04-07T03:07:38.441Z,11.31
2018-04-07T03:08:38.367Z,11.33
2018-04-07T03:09:38.355Z,11.38
2018-04-07T03:10:38.208Z,11.35
2018-04-07T03:11:38.121Z,11.35
2018-04-07T03:12:38.055Z,11.35
2018-04-07T03:13:37.958Z,11.39
2018-04-07T03:14:37.915Z,11.42
2018-04-07T03:15:37.805Z,11.42
2018-04-07T03:16:37.725Z,11.36
2018-04-07T03:17:37.638Z,11.45
2018-04-07T03:18:37.568Z,11.38
2018-04-07T03:19:37.494Z,11.33
2018-04-07T03:20:37.409Z,11.35
2018-04-07T03:21:37.333Z,11.36
2018-04-07T03:22:37.249Z,11.33
2018-04-07T03:23:37.153Z,11.35
2018-04-07T03:24:37.081Z,11.38
2018-04-07T03:25:36.999Z,11.24
2018-04-07T03:26:36.948Z,11.28
2018-04-07T03:27:36.837Z,11.20
2018-04-07T03:28:36.767Z,11.23
2018-04-07T03:29:36.673Z,11.19
2018-04-07T03:30:36.605Z,11.26
2018-04-07T03:31:36.539Z,11.24
2018-04-07T03:32:36.443Z,11.26
2018-04-07T03:33:36.350Z,11.31
2018-04-07T03:34:36.286Z,11.28
2018-04-07T03:35:36.193Z,11.20
2018-04-07T03:36:36.150Z,11.30
2018-04-07T03:37:36.049Z,11.24
2018-04-07T03:38:35.982Z,11.33
2018-04-07T03:39:35.884Z,11.27
2018-04-07T03:40:35.805Z,11.20
2018-04-07T03:41:35.714Z,11.17
2018-04-07T03:42:35.642Z,11.19
2018-04-07T03:43:35.548Z,11.13
2018-04-07T03:44:35.505Z,11.08
2018-04-07T03:45:35.402Z,11.13
2018-04-07T03:46:35.388Z,11.11
2018-04-07T03:47:35.242Z,11.20
2018-04-07T03:48:35.155Z,11.24
2018-04-07T03:49:35.065Z,11.23
2018-04-07T03:50:34.995Z,11.20
2018-04-07T03:51:34.899Z,11.21
2018-04-07T03:52:34.860Z,11.08
2018-04-07T03:53:34.754Z,11.11
2018-04-07T03:54:34.704Z,11.09
2018-04-07T03:55:34.583Z,11.06
2018-04-07T03:56:34.516Z,11.17
2018-04-07T03:57:34.448Z,11.13
2018-04-07T03:58:34.380Z,11.06
2018-04-07T03:59:34.257Z,11.11
2018-04-07T04:00:34.200Z,11.06
2018-04-07T04:01:34.100Z,11.02
2018-04-07T04:02:34.049Z,11.13
2018-04-07T04:03:33.959Z,11.03
2018-04-07T04:04:33.908Z,11.08
2018-04-07T04:05:33.815Z,11.01
2018-04-07T04:06:33.703Z,10.99
2018-04-07T04:07:33.614Z,10.91
2018-04-07T04:08:33.573Z,10.98
2018-04-07T04:09:33.477Z,10.91
2018-04-07T04:10:33.386Z,10.98
2018-04-07T04:11:33.297Z,10.98
2018-04-07T04:12:33.223Z,10.95
2018-04-07T04:13:33.156Z,10.94
2018-04-07T04:14:34.083Z,10.90
2018-04-07T04:15:32.995Z,10.93
2018-04-07T04:16:32.909Z,10.87
2018-04-07T04:17:32.816Z,10.90
2018-04-07T04:18:32.834Z,10.87
2018-04-07T04:19:32.650Z,10.87
2018-04-07T04:20:32.588Z,10.78
2018-04-07T04:21:32.491Z,10.75
2018-04-07T04:22:32.416Z,10.69
2018-04-07T04:23:32.346Z,10.90
2018-04-07T04:24:32.261Z,10.73
2018-04-07T04:25:32.184Z,10.73
2018-04-07T04:26:32.102Z,10.73
2018-04-07T04:27:32.018Z,10.73
2018-04-07T04:28:31.956Z,10.75
2018-04-07T04:29:31.845Z,10.73
2018-04-07T04:30:31.776Z,10.72
2018-04-07T04:31:31.680Z,10.62
2018-04-07T04:32:31.627Z,10.60
2018-04-07T04:33:31.540Z,10.63
2018-04-07T04:34:31.452Z,10.54
2018-04-07T04:35:31.380Z,10.47
2018-04-07T04:36:31.294Z,10.66
2018-04-07T04:37:31.213Z,10.57
2018-04-07T04:38:31.221Z,10.58
2018-04-07T04:39:31.064Z,10.55
2018-04-07T04:40:30.985Z,10.57
2018-04-07T04:41:30.895Z,10.62
2018-04-07T04:42:30.813Z,10.54
2018-04-07T04:43:30.715Z,10.57
2018-04-07T04:44:30.661Z,10.57
2018-04-07T04:45:30.551Z,10.63
2018-04-07T04:46:30.505Z,10.55
2018-04-07T04:47:30.392Z,10.55
2018-04-07T04:48:30.325Z,10.57
2018-04-07T04:49:30.234Z,10.55
2018-04-07T04:50:30.195Z,10.54
2018-04-07T04:51:30.090Z,10.51
2018-04-07T04:52:29.995Z,10.55
2018-04-07T04:53:29.908Z,10.57
2018-04-07T04:54:29.843Z,10.51
2018-04-07T04:55:29.784Z,10.63
2018-04-07T04:56:29.680Z,10.66
2018-04-07T04:57:29.591Z,10.63
2018-04-07T04:58:29.530Z,10.52
2018-04-07T04:59:29.433Z,10.68
2018-04-07T05:00:29.382Z,10.55
2018-04-07T05:01:29.798Z,10.60
2018-04-07T05:02:29.193Z,10.68
2018-04-07T05:03:29.100Z,10.62
2018-04-07T05:04:29.049Z,10.73
2018-04-07T05:05:28.942Z,10.72
2018-04-07T05:06:28.899Z,10.68
2018-04-07T05:07:28.789Z,10.72
2018-04-07T05:08:28.714Z,10.73
2018-04-07T05:09:28.616Z,10.63
2018-04-07T05:10:28.556Z,10.75
2018-04-07T05:11:28.530Z,10.72
2018-04-07T05:12:28.387Z,10.72
2018-04-07T05:13:28.300Z,10.70
2018-04-07T05:14:29.089Z,10.80
2018-04-07T05:15:28.140Z,10.72
2018-04-07T05:16:28.089Z,10.73
2018-04-07T05:17:27.986Z,10.76
2018-04-07T05:18:27.928Z,10.73
2018-04-07T05:19:27.808Z,10.72
2018-04-07T05:20:27.749Z,10.75
2018-04-07T05:21:27.653Z,10.76
2018-04-07T05:22:27.624Z,10.81
2018-04-07T05:23:27.501Z,10.86
2018-04-07T05:24:27.425Z,10.78
2018-04-07T05:25:27.337Z,10.70
2018-04-07T05:26:27.260Z,10.70
2018-04-07T05:27:27.188Z,10.87
2018-04-07T05:28:27.102Z,10.91
2018-04-07T05:29:27.017Z,10.90
2018-04-07T05:30:26.948Z,10.87
2018-04-07T05:31:26.862Z,11.02
2018-04-07T05:32:26.791Z,10.91
2018-04-07T05:33:26.706Z,11.01
2018-04-07T05:34:26.655Z,10.95
2018-04-07T05:35:26.528Z,10.94
2018-04-07T05:36:26.457Z,10.99
2018-04-07T05:37:26.387Z,10.95
2018-04-07T05:38:26.286Z,11.02
2018-04-07T05:39:26.203Z,10.94
2018-04-07T05:40:26.158Z,11.08
2018-04-07T05:41:26.038Z,10.98
2018-04-07T05:42:25.985Z,11.16
2018-04-07T05:43:25.971Z,11.02
2018-04-07T05:44:25.826Z,10.99
2018-04-07T05:45:25.718Z,11.05
2018-04-07T05:46:25.660Z,11.08
2018-04-07T05:47:25.580Z,11.09
2018-04-07T05:48:25.508Z,11.03
2018-04-07T05:49:25.422Z,11.11
2018-04-07T05:50:25.334Z,11.19
2018-04-07T05:51:25.232Z,11.09
2018-04-07T05:52:25.170Z,11.13
2018-04-07T05:53:25.100Z,11.11
2018-04-07T05:54:25.022Z,11.23
2018-04-07T05:55:24.912Z,11.19
2018-04-07T05:56:24.858Z,11.30
2018-04-07T05:57:24.747Z,11.23
2018-04-07T05:58:24.771Z,11.20
2018-04-07T05:59:24.602Z,11.27
2018-04-07T06:00:24.660Z,11.27
2018-04-07T06:01:24.469Z,11.35
2018-04-07T06:02:24.466Z,11.30
2018-04-07T06:03:24.276Z,11.21
2018-04-07T06:04:24.302Z,11.36
2018-04-07T06:05:24.111Z,11.39
2018-04-07T06:06:24.075Z,11.38
2018-04-07T06:07:24.071Z,11.35
2018-04-07T06:08:23.988Z,11.35
2018-04-07T06:09:23.818Z,11.41
2018-04-07T06:10:23.795Z,11.46
2018-04-07T06:11:23.631Z,11.42
2018-04-07T06:12:23.596Z,11.49
2018-04-07T06:13:23.474Z,11.46
2018-04-07T06:14:23.472Z,11.54
2018-04-07T06:15:23.304Z,11.46
2018-04-07T06:16:23.324Z,11.54
2018-04-07T06:17:23.149Z,11.62
2018-04-07T06:18:23.128Z,11.63
2018-04-07T06:19:23.009Z,11.64
2018-04-07T06:20:22.964Z,11.62
2018-04-07T06:21:22.829Z,11.72
2018-04-07T06:22:22.860Z,11.90
2018-04-07T06:23:22.660Z,12.19
2018-04-07T06:24:22.653Z,12.59
2018-04-07T06:25:22.541Z,13.07
2018-04-07T06:26:22.867Z,13.27
2018-04-07T06:27:22.350Z,13.27
2018-04-07T06:28:23.102Z,13.35
2018-04-07T06:29:22.188Z,13.27
2018-04-07T06:30:22.209Z,13.19
2018-04-07T06:31:22.044Z,13.59
2018-04-07T06:32:21.995Z,13.81
2018-04-07T06:33:21.860Z,13.73
2018-04-07T06:34:21.914Z,13.63
2018-04-07T06:35:21.723Z,13.91
2018-04-07T06:36:21.736Z,14.04
2018-04-07T06:37:21.541Z,14.01
2018-04-07T06:38:21.515Z,13.99
2018-04-07T06:39:21.434Z,14.19
2018-04-07T06:40:21.462Z,14.01
2018-04-07T06:41:21.251Z,14.42
2018-04-07T06:42:21.235Z,14.93
2018-04-07T06:43:21.158Z,14.23
2018-04-07T06:44:21.053Z,14.06
2018-04-07T06:45:20.941Z,13.96
2018-04-07T06:46:21.009Z,14.16
2018-04-07T06:47:20.752Z,14.12
2018-04-07T06:48:20.799Z,14.16
2018-04-07T06:49:20.605Z,13.94
2018-04-07T06:50:22.767Z,13.71
2018-04-07T06:51:20.469Z,13.99
2018-04-07T06:54:02.537Z,13.91
2018-04-07T06:55:02.868Z,13.75
2018-04-07T06:56:02.405Z,13.66
2018-04-07T06:57:02.395Z,13.83
2018-04-07T06:58:02.222Z,13.86
2018-04-07T07:00:44.041Z,14.91
2018-04-07T07:01:44.040Z,14.95
2018-04-07T07:02:43.903Z,14.83
2018-04-07T07:03:43.901Z,15.37
2018-04-07T07:04:43.736Z,15.38
2018-04-07T07:05:43.711Z,15.19
2018-04-07T07:06:43.602Z,15.31
2018-04-07T07:07:43.525Z,15.64
2018-04-07T07:08:43.411Z,15.78
2018-04-07T07:09:43.429Z,15.59
2018-04-07T07:10:43.271Z,15.48
2018-04-07T07:11:43.288Z,15.53
2018-04-07T07:12:43.136Z,15.20
2018-04-07T07:13:43.159Z,15.52
2018-04-07T07:14:42.951Z,15.81
2018-04-07T07:15:42.963Z,16.29
2018-04-07T07:16:42.884Z,16.23
2018-04-07T07:17:42.766Z,16.13
2018-04-07T07:18:42.641Z,15.71
2018-04-07T07:19:42.743Z,15.34
2018-04-07T07:20:42.475Z,15.74
2018-04-07T07:21:42.533Z,16.14
2018-04-07T07:22:42.330Z,16.42
2018-04-07T07:23:42.293Z,16.23
2018-04-07T07:24:42.164Z,15.74
2018-04-07T07:25:42.213Z,16.25
2018-04-07T07:26:42.020Z,16.22
2018-04-07T07:27:42.078Z,16.10
2018-04-07T07:28:41.861Z,15.80
2018-04-07T07:29:41.826Z,15.68
2018-04-07T07:30:41.731Z,15.66
2018-04-07T07:31:41.856Z,16.11
2018-04-07T07:32:41.578Z,15.81
2018-04-07T07:33:41.548Z,16.23
2018-04-07T07:34:41.393Z,16.51
2018-04-07T07:35:41.355Z,16.34
2018-04-07T07:36:41.348Z,16.65
2018-04-07T07:37:41.337Z,16.60
2018-04-07T07:38:41.074Z,16.48
2018-04-07T07:39:41.071Z,15.76
2018-04-07T07:40:40.918Z,16.55
2018-04-07T07:41:40.875Z,16.84
2018-04-07T07:42:40.809Z,16.22
2018-04-07T07:43:40.789Z,16.78
2018-04-07T07:44:40.603Z,16.62
2018-04-07T07:45:40.597Z,17.12
2018-04-07T07:46:40.452Z,17.36
2018-04-07T07:47:40.407Z,17.00
2018-04-07T07:48:40.326Z,17.36
2018-04-07T07:51:22.554Z,16.66
2018-04-07T07:52:22.512Z,16.92
2018-04-07T07:53:22.420Z,17.36
2018-04-07T07:54:22.436Z,17.66
2018-04-07T07:55:22.386Z,17.42
2018-04-07T07:56:23.256Z,17.70
2018-04-07T07:57:22.102Z,18.11
2018-04-07T07:58:22.228Z,18.31
2018-04-07T07:59:21.952Z,18.59
2018-04-07T08:00:21.963Z,18.68
2018-04-07T08:01:21.801Z,17.70
2018-04-07T08:04:04.104Z,17.65
2018-04-07T08:05:04.151Z,18.26
2018-04-07T08:06:03.912Z,17.12
2018-04-07T08:07:03.879Z,17.87
2018-04-07T08:08:03.759Z,18.02
2018-04-07T08:09:03.835Z,17.91
2018-04-07T08:10:03.620Z,18.32
2018-04-07T08:11:03.596Z,18.07
2018-04-07T08:12:03.441Z,17.73
2018-04-07T08:13:03.408Z,18.16
2018-04-07T08:14:03.307Z,18.02
2018-04-07T08:16:28.124Z,17.81
2018-04-07T08:17:28.124Z,18.56
2018-04-07T08:18:27.934Z,18.89
2018-04-07T08:19:28.099Z,19.42
2018-04-07T08:20:27.788Z,19.10
2018-04-07T08:21:27.729Z,18.57
2018-04-07T08:22:27.609Z,18.21
2018-04-07T08:23:27.643Z,18.46
2018-04-07T08:24:27.457Z,19.02
2018-04-07T08:25:27.486Z,18.82
2018-04-07T08:26:27.328Z,19.67
2018-04-07T08:27:27.253Z,19.06
2018-04-07T08:28:27.166Z,19.32
2018-04-07T08:29:27.166Z,18.65
2018-04-07T08:30:27.021Z,18.83
2018-04-07T08:31:26.969Z,18.94
2018-04-07T08:32:26.865Z,17.91
2018-04-07T08:33:26.886Z,17.96
2018-04-07T08:34:26.697Z,17.96
2018-04-07T08:35:26.734Z,18.01
2018-04-07T08:36:26.577Z,17.63
2018-04-07T08:37:26.514Z,18.26
2018-04-07T08:38:26.387Z,18.60
2018-04-07T08:39:26.535Z,18.54
2018-04-07T08:40:26.257Z,18.93
2018-04-07T08:41:26.219Z,19.52
2018-04-07T08:42:26.094Z,19.32
2018-04-07T08:43:26.149Z,19.09
2018-04-07T08:44:25.937Z,18.71
2018-04-07T08:45:26.008Z,18.82
2018-04-07T08:46:25.794Z,18.75
2018-04-07T08:47:25.755Z,18.60
2018-04-07T08:48:25.637Z,18.93
2018-04-07T08:49:25.673Z,20.07
2018-04-07T08:50:25.505Z,19.94
2018-04-07T08:51:25.465Z,20.50
2018-04-07T08:52:25.334Z,20.15
2018-04-07T08:53:25.415Z,20.08
2018-04-07T08:54:25.232Z,19.62
2018-04-07T08:55:25.230Z,19.70
2018-04-07T08:56:25.044Z,19.57
2018-04-07T08:57:25.022Z,19.92
2018-04-07T08:58:24.902Z,19.71
2018-04-07T08:59:24.899Z,19.52
2018-04-07T09:00:24.740Z,19.50
2018-04-07T09:01:24.751Z,19.86
2018-04-07T09:02:24.593Z,19.97
2018-04-07T09:03:24.623Z,19.68
2018-04-07T09:04:24.439Z,19.58
2018-04-07T09:05:24.449Z,19.83
2018-04-07T09:06:24.539Z,19.50
2018-04-07T09:07:24.324Z,19.13
2018-04-07T09:08:24.142Z,19.52
2018-04-07T09:09:24.216Z,19.49
2018-04-07T09:10:24.004Z,19.89
2018-04-07T09:11:24.003Z,19.80
2018-04-07T09:12:23.897Z,19.60
2018-04-07T09:13:23.875Z,19.80
2018-04-07T09:14:23.690Z,20.23
2018-04-07T09:15:23.706Z,19.52
2018-04-07T09:16:23.557Z,19.86
2018-04-07T09:17:23.528Z,19.94
2018-04-07T09:18:23.401Z,20.51
2018-04-07T09:19:23.424Z,20.98
2018-04-07T09:20:23.246Z,21.16
2018-04-07T09:21:23.210Z,21.11
2018-04-07T09:22:23.186Z,20.87
2018-04-07T09:23:23.160Z,21.40
2018-04-07T09:24:22.969Z,21.56
2018-04-07T09:25:22.982Z,20.98
2018-04-07T09:26:22.814Z,20.71
2018-04-07T09:27:22.866Z,20.73
2018-04-07T09:28:22.653Z,20.96
2018-04-07T09:29:22.641Z,21.12
2018-04-07T09:30:22.517Z,20.97
2018-04-07T09:31:22.558Z,21.53
2018-04-07T09:32:22.373Z,21.11
2018-04-07T09:33:22.403Z,20.81
2018-04-07T09:34:22.238Z,20.41
2018-04-07T09:35:22.286Z,21.00
2018-04-07T09:36:22.088Z,21.16
2018-04-07T09:37:22.090Z,21.13
2018-04-07T09:38:21.957Z,21.18
2018-04-07T09:39:21.922Z,20.54
2018-04-07T09:40:21.791Z,20.58
2018-04-07T09:41:21.808Z,21.08
2018-04-07T09:42:21.666Z,21.34
2018-04-07T09:43:21.640Z,20.98
2018-04-07T09:44:21.508Z,20.82
2018-04-07T09:45:21.527Z,20.97
2018-04-07T09:46:21.356Z,21.49
2018-04-07T09:49:03.611Z,21.96
2018-04-07T09:50:24.510Z,21.28
2018-04-07T09:51:03.470Z,21.15
2018-04-07T09:52:03.441Z,20.96
2018-04-07T09:53:03.318Z,20.94
2018-04-07T09:54:03.406Z,21.08
2018-04-07T09:55:03.173Z,21.67
2018-04-07T09:56:03.169Z,22.24
2018-04-07T09:57:03.036Z,22.93
2018-04-07T09:58:03.078Z,23.38
2018-04-07T09:59:02.896Z,22.99
2018-04-07T10:00:02.883Z,22.81
2018-04-07T10:01:02.751Z,22.41
2018-04-07T10:03:53.223Z,21.74
2018-04-07T10:04:53.063Z,22.06
2018-04-07T10:05:53.190Z,21.91
2018-04-07T10:06:52.891Z,22.42
2018-04-07T10:07:52.894Z,22.23
2018-04-07T10:08:52.749Z,22.76
2018-04-07T10:09:52.748Z,22.78
2018-04-07T10:10:52.608Z,22.39
2018-04-07T10:11:52.619Z,22.45
2018-04-07T10:12:52.464Z,22.31
2018-04-07T10:13:52.531Z,22.39
2018-04-07T10:14:52.347Z,23.62
2018-04-07T10:15:52.282Z,23.53
2018-04-07T10:16:52.180Z,23.19
2018-04-07T10:17:52.245Z,22.97
2018-04-07T10:18:52.050Z,22.76
2018-04-07T10:19:52.018Z,22.42
2018-04-07T10:20:51.904Z,22.11
2018-04-07T10:21:51.971Z,22.64
2018-04-07T10:22:51.775Z,22.88
2018-04-07T10:23:51.777Z,23.15
2018-04-07T10:24:51.648Z,23.75
2018-04-07T10:25:51.699Z,22.72
2018-04-07T10:26:51.487Z,22.79
2018-04-07T10:27:51.501Z,22.48
2018-04-07T10:28:51.373Z,23.31
2018-04-07T10:29:51.354Z,22.78
2018-04-07T10:30:51.241Z,22.66
2018-04-07T10:31:51.223Z,23.04
2018-04-07T10:32:51.095Z,23.42
2018-04-07T10:33:51.138Z,23.54
2018-04-07T10:34:51.033Z,23.39
2018-04-07T10:35:50.978Z,24.48
2018-04-07T10:36:50.815Z,23.62
2018-04-07T10:37:50.848Z,23.74
2018-04-07T10:38:50.669Z,23.12
2018-04-07T10:39:50.659Z,23.63
2018-04-07T10:40:50.542Z,22.54
2018-04-07T10:41:50.580Z,23.16
2018-04-07T10:42:50.400Z,23.60
2018-04-07T10:43:50.387Z,23.54
2018-04-07T10:44:50.246Z,23.60
2018-04-07T10:45:50.327Z,23.21
2018-04-07T10:46:50.116Z,23.50
2018-04-07T10:47:50.516Z,23.07
2018-04-07T10:48:49.980Z,23.60
2018-04-07T10:49:50.638Z,23.72
2018-04-07T10:50:49.906Z,23.96
2018-04-07T10:51:49.813Z,24.06
2018-04-07T10:52:49.707Z,24.67
2018-04-07T10:53:49.837Z,23.92
2018-04-07T10:54:49.563Z,23.96
2018-04-07T10:55:49.564Z,23.90
2018-04-07T10:56:49.502Z,23.94
2018-04-07T10:57:49.442Z,23.59
2018-04-07T10:58:49.292Z,23.97
2018-04-07T10:59:49.260Z,23.99
2018-04-07T11:00:49.173Z,23.82
2018-04-07T11:01:49.201Z,24.42
2018-04-07T11:02:49.020Z,24.18
2018-04-07T11:03:49.098Z,23.97
2018-04-07T11:04:48.868Z,23.59
2018-04-07T11:05:48.846Z,23.22
2018-04-07T11:06:48.767Z,23.62
2018-04-07T11:07:48.789Z,23.97
2018-04-07T11:08:48.609Z,23.56
2018-04-07T11:09:48.603Z,23.92
2018-04-07T11:10:48.470Z,24.12
2018-04-07T11:11:48.643Z,24.44
2018-04-07T11:12:48.365Z,24.11
2018-04-07T11:13:48.344Z,24.59
2018-04-07T11:14:48.191Z,25.01
2018-04-07T11:15:48.232Z,24.71
2018-04-07T11:16:48.166Z,24.36
2018-04-07T11:17:48.070Z,24.89
2018-04-07T11:18:47.943Z,24.18
2018-04-07T11:19:47.951Z,24.60
2018-04-07T11:20:47.788Z,23.74
2018-04-07T11:21:47.759Z,23.53
2018-04-07T11:22:47.666Z,23.82
2018-04-07T11:23:47.691Z,24.02
2018-04-07T11:24:47.518Z,23.59
2018-04-07T11:25:47.586Z,23.93
2018-04-07T11:26:47.389Z,24.27
2018-04-07T11:27:47.424Z,24.56
2018-04-07T11:28:47.264Z,24.31
2018-04-07T11:29:47.306Z,24.42
2018-04-07T11:30:47.110Z,24.15
2018-04-07T11:31:47.115Z,24.12
2018-04-07T11:32:47.022Z,24.59
2018-04-07T11:33:47.013Z,24.87
2018-04-07T11:34:46.832Z,24.60
2018-04-07T11:35:46.835Z,24.06
2018-04-07T11:36:46.698Z,24.68
2018-04-07T11:37:46.731Z,24.39
2018-04-07T11:38:46.589Z,23.97
2018-04-07T11:39:46.544Z,23.90
2018-04-07T11:40:46.437Z,23.90
2018-04-07T11:41:46.467Z,23.69
2018-04-07T11:42:46.301Z,24.27
2018-04-07T11:43:46.299Z,24.86
2018-04-07T11:44:46.182Z,24.68
2018-04-07T11:45:46.180Z,24.86
2018-04-07T11:46:46.021Z,24.49
2018-04-07T11:49:28.161Z,23.79
2018-04-07T11:50:28.090Z,23.89
2018-04-07T11:51:28.020Z,24.04
2018-04-07T11:52:27.965Z,23.99
2018-04-07T11:53:27.875Z,24.30
2018-04-07T11:54:27.848Z,24.27
2018-04-07T11:55:27.756Z,23.56
2018-04-07T11:56:27.693Z,23.63
2018-04-07T11:57:27.609Z,23.68
2018-04-07T11:58:27.538Z,23.87
2018-04-07T11:59:27.490Z,23.78
2018-04-07T12:00:27.400Z,23.77
2018-04-07T12:01:27.324Z,23.93
2018-04-07T12:02:27.329Z,23.39
2018-04-07T12:03:27.196Z,23.78
2018-04-07T12:04:27.149Z,24.30
2018-04-07T12:05:27.059Z,24.82
2018-04-07T12:06:27.049Z,24.26
2018-04-07T12:07:26.917Z,23.79
2018-04-07T12:08:26.856Z,24.51
2018-04-07T12:09:26.905Z,24.00
2018-04-07T12:10:26.718Z,24.11
2018-04-07T12:11:26.702Z,23.90
2018-04-07T12:12:26.587Z,23.39
2018-04-07T12:13:26.516Z,23.38
2018-04-07T12:14:26.507Z,23.26
2018-04-07T12:15:26.372Z,23.41
2018-04-07T12:16:26.298Z,23.16
2018-04-07T12:17:26.220Z,23.29
2018-04-07T12:18:26.138Z,23.01
2018-04-07T12:19:26.062Z,22.79
2018-04-07T12:20:26.031Z,22.66
2018-04-07T12:21:25.926Z,22.44
2018-04-07T12:22:25.864Z,22.41
2018-04-07T12:23:25.771Z,22.45
2018-04-07T12:24:25.748Z,22.30
2018-04-07T12:25:25.655Z,22.44
2018-04-07T12:26:25.599Z,22.27
2018-04-07T12:27:25.473Z,22.45
2018-04-07T12:28:25.438Z,22.56
2018-04-07T12:29:25.339Z,22.54
2018-04-07T12:30:25.314Z,22.70
2018-04-07T12:31:25.177Z,22.67
2018-04-07T12:32:25.107Z,22.99
2018-04-07T12:33:25.031Z,22.72
2018-04-07T12:34:24.978Z,22.64
2018-04-07T12:35:24.890Z,22.70
2018-04-07T12:36:24.848Z,22.86
2018-04-07T12:37:24.736Z,22.96
2018-04-07T12:38:24.677Z,22.81
2018-04-07T12:39:24.582Z,22.67
2018-04-07T12:40:24.551Z,22.45
2018-04-07T12:41:24.472Z,22.51
2018-04-07T12:42:24.381Z,22.52
2018-04-07T12:43:24.296Z,22.56
2018-04-07T12:44:24.305Z,22.52
2018-04-07T12:45:24.168Z,22.67
2018-04-07T12:46:24.107Z,22.81
2018-04-07T12:47:24.031Z,22.66
2018-04-07T12:48:23.987Z,22.46
2018-04-07T12:49:23.859Z,22.54
2018-04-07T12:50:23.796Z,22.74
2018-04-07T12:51:23.750Z,22.66
2018-04-07T12:52:23.658Z,22.76
2018-04-07T12:53:23.540Z,22.75
2018-04-07T12:54:23.574Z,23.03
2018-04-07T12:55:23.420Z,22.97
2018-04-07T12:56:23.364Z,22.91
2018-04-07T12:57:23.385Z,22.75
2018-04-07T12:58:23.214Z,22.86
2018-04-07T12:59:23.112Z,22.96
2018-04-07T13:00:23.160Z,23.06
2018-04-07T13:01:22.970Z,23.16
2018-04-07T13:02:24.004Z,23.29
2018-04-07T13:03:22.803Z,23.23
2018-04-07T13:04:22.852Z,23.22
2018-04-07T13:05:22.664Z,23.31